Time;durP1;ratioP1;P1;durP2;ratioP2;P2;SDS_P1;SDS_P2;PMS_P1;PMS_P2;Temp;Humidity;BMP_temperature;BMP_pressure;BME280_temperature;BME280_humidity;BME280_pressure;Samples;Min_cycle;Max_cycle;Signal;HPM_P1;HPM_P2
2022/11/19 00:01:03;;;;;;;4.30;2.20;;;;;;;17.91;38.38;101483.53;5032422;28;20411;-55
2022/11/19 00:03:32;;;;;;;8.02;2.72;;;;;;;17.80;39.35;101481.69;5032312;28;20056;-55
2022/11/19 00:06:03;;;;;;;6.85;2.70;;;;;;;17.86;40.48;101481.53;5031205;28;20025;-54
2022/11/19 00:08:30;;;;;;;8.02;2.28;;;;;;;17.51;41.90;101484.28;5032113;28;20032;-54
2022/11/19 00:11:09;;;;;;;3.72;2.42;;;;;;;17.63;41.77;101476.97;5032287;28;20048;-55
2022/11/19 00:13:37;;;;;;;8.85;2.42;;;;;;;17.47;42.19;101484.97;5032291;28;20025;-54
2022/11/19 00:16:11;;;;;;;5.55;2.85;;;;;;;17.15;43.66;101482.59;5042279;28;20029;-51
2022/11/19 00:18:39;;;;;;;5.70;2.42;;;;;;;17.21;43.64;101478.13;5040068;28;20124;-51
2022/11/19 00:21:10;;;;;;;7.25;2.80;;;;;;;17.13;44.11;101487.44;5047332;28;20108;-52
2022/11/19 00:23:37;;;;;;;4.30;2.97;;;;;;;17.05;44.42;101480.50;5051837;28;20090;-52
2022/11/19 00:26:12;;;;;;;6.68;3.17;;;;;;;16.95;45.16;101485.66;5037672;28;20052;-52
2022/11/19 00:28:39;;;;;;;7.43;3.65;;;;;;;16.95;46.11;101485.66;5051614;28;20029;-52
2022/11/19 00:31:09;;;;;;;6.40;3.03;;;;;;;16.84;46.77;101495.38;5050817;28;20108;-52
2022/11/19 00:33:37;;;;;;;7.78;3.20;;;;;;;16.76;46.70;101494.88;5042775;28;20025;-52
2022/11/19 00:36:06;;;;;;;7.88;3.38;;;;;;;16.84;46.95;101492.69;5017755;28;20468;-48
2022/11/19 00:38:33;;;;;;;11.07;3.80;;;;;;;16.66;47.94;101503.53;5031500;28;20112;-48
2022/11/19 00:41:00;;;;;;;7.93;3.22;;;;;;;16.64;48.46;101501.03;5040283;28;20080;-53
2022/11/19 00:46:11;;;;;;;8.20;3.80;;;;;;;16.52;50.87;101513.69;5068928;28;20527;-52
2022/11/19 00:48:38;;;;;;;8.20;3.65;;;;;;;16.16;52.25;101519.16;5051080;28;20121;-53
2022/11/19 00:51:05;;;;;;;8.70;4.20;;;;;;;15.97;53.06;101516.47;5051797;28;20052;-52
2022/11/19 00:53:31;;;;;;;10.80;4.07;;;;;;;15.89;53.12;101516.78;5050637;28;20029;-55
2022/11/19 00:56:01;;;;;;;6.13;3.03;;;;;;;15.84;53.18;101519.31;5051776;28;20048;-55
2022/11/19 00:58:28;;;;;;;7.03;3.78;;;;;;;15.88;53.21;101511.59;5064253;28;20025;-55
2022/11/19 01:00:55;;;;;;;7.82;4.13;;;;;;;15.81;53.38;101517.88;5051315;28;20322;-54
2022/11/19 01:03:22;;;;;;;9.23;3.78;;;;;;;15.58;54.05;101518.50;5050990;28;20075;-54
2022/11/19 01:05:48;;;;;;;8.98;4.10;;;;;;;15.51;54.67;101528.53;5035363;28;20057;-54
2022/11/19 01:08:14;;;;;;;10.45;4.68;;;;;;;15.50;55.34;101528.78;5033180;28;20021;-54
2022/11/19 01:10:42;;;;;;;9.40;4.55;;;;;;;15.30;55.50;101527.06;5030930;28;20025;-55
2022/11/19 01:15:53;;;;;;;12.32;6.28;;;;;;;15.09;55.87;101529.31;5031641;28;20036;-54
2022/11/19 01:18:19;;;;;;;14.32;5.55;;;;;;;15.01;56.06;101535.81;5053076;28;20032;-55
2022/11/19 01:20:46;;;;;;;11.77;4.63;;;;;;;14.96;56.61;101539.16;5047141;28;20025;-55
2022/11/19 01:23:12;;;;;;;7.50;4.03;;;;;;;14.88;56.90;101536.72;5054817;28;20459;-54
2022/11/19 01:25:39;;;;;;;6.93;4.35;;;;;;;14.71;57.48;101533.72;5051598;28;20047;-55
2022/11/19 01:28:05;;;;;;;9.52;4.28;;;;;;;14.71;57.84;101540.94;5050120;28;20029;-54
2022/11/19 01:30:32;;;;;;;8.77;4.78;;;;;;;14.55;58.43;101536.91;5069645;28;20070;-54
2022/11/19 01:32:59;;;;;;;17.48;4.80;;;;;;;14.38;58.99;101528.47;5066440;28;20116;-54
2022/11/19 01:35:25;;;;;;;8.10;3.97;;;;;;;14.30;59.26;101544.03;5051180;28;20033;-54
2022/11/19 01:37:51;;;;;;;10.27;4.55;;;;;;;14.19;59.24;101540.97;5050686;28;20100;-54
2022/11/19 01:40:18;;;;;;;12.48;5.45;;;;;;;14.09;59.63;101542.44;5049828;28;20033;-54
2022/11/19 01:42:50;;;;;;;7.93;4.95;;;;;;;13.98;59.58;101538.53;5064522;28;20135;-54
2022/11/19 01:45:35;;;;;;;12.77;5.22;;;;;;;14.21;59.70;101543.44;5070966;28;20590;-57
2022/11/19 01:48:09;;;;;;;8.93;4.85;;;;;;;13.91;59.37;101549.34;5066779;28;20029;-56
2022/11/19 01:50:42;;;;;;;7.88;5.00;;;;;;;13.71;59.01;101554.78;5046156;28;20099;-53
2022/11/19 01:53:09;;;;;;;11.88;4.93;;;;;;;13.56;58.82;101554.16;5050811;28;20095;-56
2022/11/19 01:55:37;;;;;;;7.13;4.30;;;;;;;13.53;58.24;101554.56;5039135;28;20426;-54
2022/11/19 01:58:05;;;;;;;7.68;4.15;;;;;;;13.41;57.15;101546.28;5036991;28;20033;-56
2022/11/19 02:00:31;;;;;;;5.95;4.07;;;;;;;13.23;56.84;101546.09;5068998;28;20029;-57
2022/11/19 02:02:58;;;;;;;8.13;3.80;;;;;;;13.13;56.58;101551.00;5031374;28;20508;-56
2022/11/19 02:05:25;;;;;;;11.00;3.88;;;;;;;13.03;56.36;101545.22;5071834;28;20032;-56
2022/11/19 02:07:56;;;;;;;6.90;3.28;;;;;;;12.89;56.32;101555.13;5074224;28;20033;-56
2022/11/19 02:10:52;;;;;;;6.35;4.03;;;;;;;12.85;55.80;101560.06;5056527;28;20473;-56
2022/11/19 02:13:38;;;;;;;5.38;3.63;;;;;;;12.67;55.47;101557.13;5003503;28;20041;-55
2022/11/19 02:16:25;;;;;;;5.20;3.33;;;;;;;12.55;54.92;101561.44;5034949;28;20305;-56
2022/11/19 02:18:57;;;;;;;6.93;3.67;;;;;;;12.44;54.58;101568.22;5033035;28;20034;-57
2022/11/19 02:21:31;;;;;;;6.57;3.00;;;;;;;11.97;54.52;101567.13;5034614;28;20022;-56
2022/11/19 02:24:03;;;;;;;5.22;3.20;;;;;;;12.05;54.06;101561.63;5034288;28;20465;-56
2022/11/19 02:27:07;;;;;;;5.97;3.45;;;;;;;11.11;55.53;101574.50;5033906;28;20543;-56
2022/11/19 02:29:58;;;;;;;5.60;3.08;;;;;;;11.06;54.91;101568.88;5037263;28;20036;-56
2022/11/19 02:33:06;;;;;;;5.13;2.75;;;;;;;11.30;54.36;101571.16;5033517;28;20037;-56
2022/11/19 02:35:41;;;;;;;4.97;2.95;;;;;;;11.19;53.80;101579.72;5036660;28;20589;-54
2022/11/19 02:38:20;;;;;;;4.93;3.13;;;;;;;11.21;53.55;101563.44;5046220;28;20040;-56
2022/11/19 02:40:52;;;;;;;7.57;3.35;;;;;;;11.36;53.18;101578.41;5043177;28;20031;-55
2022/11/19 02:43:34;;;;;;;5.18;2.70;;;;;;;11.32;53.43;101563.75;5038621;28;20036;-56
2022/11/19 02:46:15;;;;;;;4.85;3.10;;;;;;;11.25;53.57;101568.22;5045245;28;20090;-56
2022/11/19 02:48:48;;;;;;;5.50;3.50;;;;;;;11.22;53.63;101576.66;5052438;28;20428;-56
2022/11/19 02:51:17;;;;;;;4.75;2.97;;;;;;;11.20;53.69;101581.38;5052671;28;20021;-56
2022/11/19 02:53:47;;;;;;;6.10;3.25;;;;;;;11.43;53.66;101574.97;5049186;28;20477;-56
2022/11/19 02:56:16;;;;;;;7.55;3.65;;;;;;;11.52;53.33;101579.16;5033739;28;20540;-56
2022/11/19 03:04:29;;;;;;;6.85;4.03;;;;;;;11.07;55.14;101583.94;5042999;28;20037;-56
2022/11/19 03:07:04;;;;;;;9.02;4.47;;;;;;;10.98;55.24;101590.41;5053101;28;20021;-57
2022/11/19 03:09:33;;;;;;;6.70;3.90;;;;;;;10.85;55.98;101591.13;5053094;28;20029;-56
2022/11/19 03:12:45;;;;;;;9.73;4.57;;;;;;;10.76;56.12;101585.03;5053161;28;20055;-56
2022/11/19 03:18:33;;;;;;;7.17;4.97;;;;;;;10.65;55.74;101593.56;4972518;28;20077;-55
2022/11/19 03:21:20;;;;;;;9.18;4.45;;;;;;;10.58;55.67;101592.66;5038433;28;20058;-56
2022/11/19 03:24:19;;;;;;;6.88;4.43;;;;;;;10.44;56.34;101594.34;5052260;28;20021;-56
2022/11/19 03:27:01;;;;;;;6.13;5.13;;;;;;;10.43;55.81;101598.03;5052948;28;20029;-56
2022/11/19 03:29:31;;;;;;;12.68;5.55;;;;;;;10.46;55.94;101602.19;5053664;28;20032;-56
2022/11/19 03:32:06;;;;;;;10.48;6.00;;;;;;;10.43;55.47;101599.88;5073294;28;20032;-56
2022/11/19 03:34:34;;;;;;;7.57;4.97;;;;;;;10.29;55.84;101602.38;5072523;28;20115;-55
2022/11/19 03:37:03;;;;;;;7.38;4.95;;;;;;;10.14;56.28;101609.53;5072513;28;20024;-56
2022/11/19 03:39:30;;;;;;;9.63;5.75;;;;;;;10.13;56.25;101615.91;5064056;28;20512;-55
2022/11/19 03:41:57;;;;;;;11.02;5.93;;;;;;;10.05;56.34;101614.16;5051304;28;20370;-56
2022/11/19 03:44:26;;;;;;;8.88;5.10;;;;;;;9.95;56.16;101612.78;5032527;28;20025;-56
2022/11/19 03:47:11;;;;;;;9.85;5.20;;;;;;;9.86;56.29;101617.34;5047713;28;20037;-55
2022/11/19 03:49:45;;;;;;;7.15;5.28;;;;;;;9.89;56.36;101614.34;5051566;28;20065;-56
2022/11/19 03:52:17;;;;;;;7.13;5.20;;;;;;;9.82;56.64;101618.72;5051586;28;20072;-55
2022/11/19 03:54:44;;;;;;;8.52;4.97;;;;;;;9.81;56.34;101622.41;5033748;28;20025;-55
2022/11/19 03:57:13;;;;;;;8.55;5.30;;;;;;;9.68;56.04;101623.03;5051346;28;20492;-56
2022/11/19 03:59:40;;;;;;;8.00;5.43;;;;;;;9.61;56.07;101619.44;5050387;28;20052;-55
2022/11/19 04:02:08;;;;;;;6.07;5.07;;;;;;;9.56;55.96;101619.16;5051808;28;20400;-54
2022/11/19 04:04:35;;;;;;;6.35;4.53;;;;;;;9.50;56.01;101622.53;5051527;28;20489;-56
2022/11/19 04:07:06;;;;;;;7.13;5.15;;;;;;;9.50;56.18;101625.22;5051237;28;20029;-54
2022/11/19 04:09:33;;;;;;;8.90;5.03;;;;;;;9.61;55.76;101632.81;5033122;28;20473;-55
2022/11/19 04:12:00;;;;;;;8.50;5.32;;;;;;;9.42;56.19;101641.31;5051123;28;20114;-55
2022/11/19 04:14:27;;;;;;;7.68;5.05;;;;;;;9.37;56.47;101636.50;5052405;28;20036;-54
2022/11/19 04:16:53;;;;;;;11.05;6.55;;;;;;;9.24;56.63;101637.09;5049730;28;20401;-54
2022/11/19 04:19:20;;;;;;;7.82;6.38;;;;;;;9.34;55.59;101636.03;5032115;28;20179;-54
2022/11/19 04:21:46;;;;;;;7.32;6.30;;;;;;;9.33;55.48;101629.00;5045618;28;20033;-54
2022/11/19 04:24:12;;;;;;;6.68;5.97;;;;;;;9.21;55.84;101631.25;5051227;28;20053;-55
2022/11/19 04:26:38;;;;;;;10.18;7.28;;;;;;;9.14;55.56;101639.16;5050927;28;20025;-54
2022/11/19 04:29:04;;;;;;;9.18;7.13;;;;;;;9.04;55.98;101638.56;5050099;28;20070;-55
2022/11/19 04:31:31;;;;;;;11.35;6.10;;;;;;;8.96;55.42;101642.09;5050939;28;20037;-55
2022/11/19 04:33:57;;;;;;;8.80;6.05;;;;;;;8.81;55.73;101646.53;5051458;28;20359;-53
2022/11/19 04:36:23;;;;;;;10.23;6.20;;;;;;;8.89;55.84;101651.00;5050864;28;20025;-52
2022/11/19 04:38:49;;;;;;;13.15;6.00;;;;;;;8.91;55.60;101649.81;5051007;28;20025;-53
2022/11/19 04:41:15;;;;;;;10.88;6.43;;;;;;;8.84;55.82;101650.69;5050603;28;20021;-53
2022/11/19 04:43:41;;;;;;;6.47;5.38;;;;;;;8.89;55.52;101651.84;5050144;28;20048;-53
2022/11/19 04:46:08;;;;;;;9.90;5.95;;;;;;;8.94;54.88;101644.13;5050747;28;20511;-53
2022/11/19 04:48:34;;;;;;;8.82;5.20;;;;;;;9.16;52.24;101646.97;5051723;28;20028;-55
2022/11/19 04:51:00;;;;;;;7.18;5.00;;;;;;;8.83;53.34;101654.34;5049466;28;20514;-56
2022/11/19 04:53:26;;;;;;;8.18;5.25;;;;;;;9.00;53.29;101653.28;5050668;28;20120;-52
2022/11/19 04:55:52;;;;;;;10.07;4.68;;;;;;;8.84;52.01;101654.19;5049383;28;20033;-53
2022/11/19 04:58:18;;;;;;;5.95;4.85;;;;;;;8.71;52.88;101662.75;5050292;28;20477;-53
2022/11/19 05:00:46;;;;;;;7.22;4.50;;;;;;;8.66;52.46;101662.47;5050623;28;20083;-54
2022/11/19 05:03:12;;;;;;;6.03;4.05;;;;;;;8.54;52.41;101661.16;5050831;28;20017;-55
2022/11/19 05:05:38;;;;;;;7.50;4.72;;;;;;;8.86;52.78;101665.53;5050332;28;20390;-55
2022/11/19 05:08:05;;;;;;;7.45;4.28;;;;;;;8.69;52.95;101670.09;5051109;28;20025;-54
2022/11/19 05:10:32;;;;;;;6.50;3.95;;;;;;;8.76;53.27;101672.91;5050828;28;20471;-51
2022/11/19 05:12:58;;;;;;;5.80;4.40;;;;;;;8.59;53.83;101668.63;5049472;28;20029;-52
2022/11/19 05:15:24;;;;;;;6.97;4.50;;;;;;;8.64;53.43;101675.13;5051163;28;20044;-52
2022/11/19 05:17:50;;;;;;;5.18;4.03;;;;;;;8.48;53.81;101675.19;5049072;28;20115;-53
2022/11/19 05:20:17;;;;;;;6.45;4.32;;;;;;;8.50;53.70;101675.84;5047857;28;20033;-52
2022/11/19 05:22:43;;;;;;;5.20;3.95;;;;;;;8.46;53.95;101680.69;5048849;28;20029;-53
2022/11/19 05:25:09;;;;;;;6.97;4.68;;;;;;;8.41;53.65;101680.38;5051402;28;20021;-53
2022/11/19 05:27:35;;;;;;;7.05;3.83;;;;;;;8.36;53.83;101673.88;5048841;28;20059;-53
2022/11/19 05:30:01;;;;;;;6.90;4.40;;;;;;;8.29;53.92;101680.88;5050010;28;20060;-53
2022/11/19 05:32:28;;;;;;;6.40;4.18;;;;;;;8.26;53.96;101684.72;5049675;28;20473;-53
2022/11/19 05:34:54;;;;;;;6.53;4.30;;;;;;;8.31;53.52;101686.88;5049172;28;20033;-52
2022/11/19 05:37:20;;;;;;;5.80;4.35;;;;;;;8.27;53.69;101683.69;5049787;28;20060;-52
2022/11/19 05:39:46;;;;;;;5.65;4.18;;;;;;;8.27;53.43;101685.53;5053113;28;20063;-53
2022/11/19 05:42:12;;;;;;;5.53;3.97;;;;;;;8.19;53.38;101697.91;5052241;28;20032;-52
2022/11/19 05:44:38;;;;;;;6.20;3.10;;;;;;;8.23;52.61;101698.41;5052969;28;20040;-53
2022/11/19 05:47:05;;;;;;;4.88;3.92;;;;;;;8.24;52.50;101704.56;5053157;28;20108;-54
2022/11/19 05:49:31;;;;;;;4.43;3.58;;;;;;;8.25;52.87;101707.06;5053215;28;20076;-52
2022/11/19 05:51:57;;;;;;;4.60;3.22;;;;;;;8.30;52.44;101711.88;5052967;28;20031;-53
2022/11/19 05:54:23;;;;;;;4.63;4.00;;;;;;;8.28;52.81;101708.56;5053500;28;20056;-53
2022/11/19 05:56:49;;;;;;;5.75;3.45;;;;;;;8.19;53.00;101716.56;5053485;28;20029;-52
2022/11/19 05:59:15;;;;;;;4.18;3.28;;;;;;;8.14;53.26;101716.22;5051907;28;20099;-52
2022/11/19 06:01:42;;;;;;;5.28;3.78;;;;;;;8.13;53.12;101719.06;5054255;28;20025;-52
2022/11/19 06:04:10;;;;;;;5.35;3.47;;;;;;;8.15;52.84;101725.91;5053234;28;20025;-53
2022/11/19 06:06:36;;;;;;;5.68;3.45;;;;;;;8.11;52.99;101724.59;5047543;28;20025;-53
2022/11/19 06:09:03;;;;;;;6.53;3.60;;;;;;;8.15;53.50;101727.72;5032906;28;20674;-53
2022/11/19 06:11:47;;;;;;;5.72;3.50;;;;;;;8.10;53.43;101728.22;5037380;28;20521;-52
2022/11/19 06:14:14;;;;;;;4.72;4.25;;;;;;;8.09;54.11;101729.25;5050343;28;20064;-52
2022/11/19 06:16:40;;;;;;;4.63;3.75;;;;;;;7.97;54.15;101738.59;5050664;28;20040;-53
2022/11/19 06:19:06;;;;;;;6.30;3.90;;;;;;;7.88;54.17;101731.56;5052059;28;20021;-53
2022/11/19 06:21:33;;;;;;;5.63;4.10;;;;;;;7.81;54.77;101734.06;5052841;28;20040;-52
2022/11/19 06:23:59;;;;;;;7.97;3.72;;;;;;;7.75;54.83;101739.25;5051962;28;20047;-56
2022/11/19 06:26:28;;;;;;;6.10;3.83;;;;;;;7.66;54.91;101739.25;5052378;28;20032;-52
2022/11/19 06:28:55;;;;;;;4.57;4.00;;;;;;;7.69;54.10;101738.06;5049959;28;20036;-52
2022/11/19 06:31:22;;;;;;;7.15;3.88;;;;;;;7.66;54.46;101736.59;5052528;28;20501;-51
2022/11/19 06:33:49;;;;;;;5.60;4.20;;;;;;;7.51;54.89;101735.56;5050871;28;20048;-52
2022/11/19 06:36:15;;;;;;;6.43;3.97;;;;;;;7.44;54.43;101737.22;5052490;28;20029;-52
2022/11/19 06:38:41;;;;;;;5.13;3.67;;;;;;;7.54;53.44;101748.53;5052398;28;20033;-52
2022/11/19 06:41:08;;;;;;;6.40;3.80;;;;;;;7.35;52.40;101759.50;5034543;28;20036;-51
2022/11/19 06:43:34;;;;;;;6.40;3.95;;;;;;;7.22;51.96;101751.97;5051269;28;20059;-52
2022/11/19 06:46:00;;;;;;;5.03;3.53;;;;;;;7.25;51.81;101758.78;5051832;28;20531;-51
2022/11/19 06:48:26;;;;;;;3.88;2.83;;;;;;;7.32;51.26;101757.13;5052478;28;20043;-53
2022/11/19 06:50:52;;;;;;;6.05;2.85;;;;;;;7.52;50.74;101752.38;5051243;28;20036;-52
2022/11/19 06:53:19;;;;;;;4.93;3.00;;;;;;;7.59;48.36;101756.88;5049926;28;20037;-52
2022/11/19 06:55:45;;;;;;;4.40;3.22;;;;;;;7.69;48.85;101754.06;5051973;28;20052;-52
2022/11/19 06:58:13;;;;;;;4.15;2.53;;;;;;;7.62;48.87;101766.38;5050688;28;20025;-51
2022/11/19 07:00:39;;;;;;;4.38;3.15;;;;;;;7.66;48.69;101767.69;5051047;28;20124;-52
2022/11/19 07:03:06;;;;;;;4.22;2.70;;;;;;;7.60;49.19;101757.69;5053338;28;20021;-51
2022/11/19 07:05:32;;;;;;;3.72;2.85;;;;;;;7.66;48.84;101770.34;5046493;28;20115;-52
2022/11/19 07:07:58;;;;;;;3.22;2.90;;;;;;;7.69;49.09;101764.72;5051121;28;20477;-55
2022/11/19 07:10:25;;;;;;;6.35;3.28;;;;;;;7.84;47.42;101770.25;5052866;28;20187;-47
2022/11/19 07:12:51;;;;;;;8.13;3.40;;;;;;;7.72;48.41;101775.06;5050543;28;20120;-50
2022/11/19 07:15:17;;;;;;;5.57;3.60;;;;;;;7.76;48.50;101772.88;5052185;28;20044;-52
2022/11/19 07:17:43;;;;;;;3.90;2.85;;;;;;;7.66;49.42;101773.88;5051307;28;20033;-52
2022/11/19 07:20:10;;;;;;;4.35;3.05;;;;;;;7.76;49.09;101778.22;5050883;28;20033;-52
2022/11/19 07:22:37;;;;;;;5.22;3.55;;;;;;;7.65;49.96;101788.19;5051567;28;20182;-51
2022/11/19 07:25:03;;;;;;;4.68;3.53;;;;;;;7.78;49.40;101781.56;5052070;28;20036;-52
2022/11/19 07:27:29;;;;;;;4.07;3.33;;;;;;;7.67;49.36;101793.38;5049376;28;20637;-52
2022/11/19 07:29:55;;;;;;;4.00;3.15;;;;;;;7.60;49.97;101790.50;5051892;28;20074;-51
2022/11/19 07:32:21;;;;;;;5.00;3.28;;;;;;;7.57;49.93;101793.50;5051417;28;20041;-51
2022/11/19 07:34:48;;;;;;;4.90;3.47;;;;;;;7.52;50.68;101798.50;5051501;28;20490;-52
2022/11/19 07:37:14;;;;;;;6.38;3.50;;;;;;;7.41;50.80;101791.63;5050234;28;20021;-53
2022/11/19 07:39:40;;;;;;;5.05;3.30;;;;;;;7.40;51.15;101797.97;5049892;28;20086;-50
2022/11/19 07:44:52;;;;;;;6.05;4.00;;;;;;;7.29;52.42;101797.41;5041683;28;20124;-49
2022/11/19 07:47:18;;;;;;;4.20;3.50;;;;;;;7.21;52.08;101810.69;5050880;28;20041;-51
2022/11/19 07:49:44;;;;;;;6.10;3.50;;;;;;;7.14;52.11;101810.50;5050352;28;20028;-51
2022/11/19 07:52:10;;;;;;;3.88;3.33;;;;;;;7.16;52.09;101811.16;5050146;28;20022;-51
2022/11/19 07:54:36;;;;;;;5.07;3.10;;;;;;;7.04;52.22;101815.09;5049587;28;20587;-52
2022/11/19 07:57:03;;;;;;;7.30;3.28;;;;;;;6.93;52.25;101813.53;5051010;28;20031;-52
2022/11/19 07:59:29;;;;;;;3.75;3.05;;;;;;;6.74;52.45;101813.78;5049147;28;20032;-51
2022/11/19 08:01:55;;;;;;;4.63;3.80;;;;;;;6.90;52.57;101816.53;5050723;28;20040;-51
2022/11/19 08:04:21;;;;;;;4.28;3.28;;;;;;;6.86;52.60;101817.84;5050373;28;20116;-53
2022/11/19 08:06:47;;;;;;;6.00;3.75;;;;;;;6.98;53.18;101819.25;5050679;28;20086;-51
2022/11/19 08:09:14;;;;;;;6.88;3.25;;;;;;;6.86;53.58;101824.00;5048933;28;20473;-48
2022/11/19 08:11:40;;;;;;;7.53;3.83;;;;;;;6.79;54.16;101816.81;5050875;28;20025;-52
2022/11/19 08:14:06;;;;;;;4.32;3.10;;;;;;;6.65;54.26;101814.72;5050843;28;20032;-52
2022/11/19 08:19:17;;;;;;;4.97;4.03;;;;;;;6.52;54.27;101829.25;5036008;28;20052;-53
2022/11/19 08:21:45;;;;;;;4.90;3.72;;;;;;;6.53;54.74;101825.59;5051147;28;20021;-52
2022/11/19 08:24:13;;;;;;;6.53;3.83;;;;;;;6.46;54.70;101826.41;5050174;28;20020;-52
2022/11/19 08:26:40;;;;;;;4.43;3.53;;;;;;;6.41;54.37;101824.19;5049147;28;20115;-52
2022/11/19 08:29:07;;;;;;;6.35;3.60;;;;;;;6.53;52.29;101822.13;5050317;28;20021;-51
2022/11/19 08:31:33;;;;;;;6.07;3.65;;;;;;;6.30;52.06;101821.78;5050417;28;20413;-51
2022/11/19 08:34:03;;;;;;;4.50;3.45;;;;;;;6.32;52.83;101825.94;5050607;28;20040;-52
2022/11/19 08:36:29;;;;;;;4.45;3.33;;;;;;;6.32;51.90;101823.28;5049965;28;20474;-52
2022/11/19 08:39:01;;;;;;;4.45;3.15;;;;;;;6.44;51.52;101831.00;5049007;28;20411;-51
2022/11/19 08:44:12;;;;;;;4.05;2.85;;;;;;;6.50;51.63;101825.94;5050617;28;20087;-51
2022/11/19 08:46:39;;;;;;;5.13;3.28;;;;;;;6.65;51.55;101815.53;5050807;28;20100;-48
2022/11/19 08:49:06;;;;;;;5.40;3.38;;;;;;;6.46;51.67;101803.28;5048330;28;20024;-51
2022/11/19 08:51:32;;;;;;;4.75;2.70;;;;;;;6.50;51.43;101811.81;5050504;28;20044;-52
2022/11/19 08:53:59;;;;;;;4.05;2.58;;;;;;;6.56;49.33;101808.53;5049991;28;20083;-52
2022/11/19 08:56:26;;;;;;;3.05;2.75;;;;;;;6.74;48.60;101803.97;5050472;28;20025;-51
2022/11/19 08:58:53;;;;;;;2.90;2.22;;;;;;;6.69;48.25;101800.13;5050291;28;20037;-52
2022/11/19 09:01:20;;;;;;;3.75;2.95;;;;;;;6.89;48.35;101817.53;5049774;28;20029;-51
2022/11/19 09:03:46;;;;;;;3.15;2.38;;;;;;;6.58;50.08;101810.03;5049260;28;20422;-51
2022/11/19 09:06:13;;;;;;;3.05;2.15;;;;;;;6.67;49.67;101813.59;5042962;28;20733;-50
2022/11/19 09:08:40;;;;;;;2.45;2.20;;;;;;;6.61;49.99;101819.53;5050165;28;20029;-50
2022/11/19 09:11:11;;;;;;;3.60;2.50;;;;;;;6.60;50.11;101824.00;5049976;28;20021;-52
2022/11/19 09:13:38;;;;;;;3.53;2.53;;;;;;;6.72;50.03;101826.41;5052475;28;20503;-51
2022/11/19 09:16:05;;;;;;;4.57;2.20;;;;;;;6.54;50.88;101816.63;5053478;28;20025;-52
2022/11/19 09:18:31;;;;;;;4.78;2.55;;;;;;;6.55;50.71;101821.00;5053906;28;20040;-52
2022/11/19 09:20:58;;;;;;;4.25;2.50;;;;;;;6.52;50.82;101821.28;5053183;28;20470;-52
2022/11/19 09:23:26;;;;;;;4.20;2.50;;;;;;;6.69;48.77;101826.72;5053131;28;20044;-52
2022/11/19 09:26:16;;;;;;;3.15;2.30;;;;;;;6.57;49.06;101826.97;5052405;28;20032;-52
2022/11/19 09:28:43;;;;;;;4.25;2.10;;;;;;;6.54;48.14;101840.56;5043513;28;20037;-52
2022/11/19 09:31:15;;;;;;;3.38;2.83;;;;;;;6.72;48.07;101826.41;5053682;28;20554;-52
2022/11/19 09:33:44;;;;;;;4.53;2.55;;;;;;;6.59;48.91;101832.97;5052763;28;20098;-51
2022/11/19 09:36:12;;;;;;;3.67;2.75;;;;;;;6.59;49.40;101840.13;5053734;28;20123;-51
2022/11/19 09:38:39;;;;;;;5.65;3.08;;;;;;;6.65;50.16;101841.31;5053804;28;20040;-52
2022/11/19 09:41:42;;;;;;;5.50;3.25;;;;;;;6.39;51.09;101844.81;5053272;28;20025;-52
2022/11/19 09:44:26;;;;;;;5.43;3.33;;;;;;;6.22;51.95;101841.16;5052767;28;20055;-53
2022/11/19 09:47:12;;;;;;;3.05;2.60;;;;;;;6.39;51.93;101851.94;5012091;28;20037;-53
2022/11/19 09:49:44;;;;;;;;;;;;;;;6.25;52.01;101848.81;4996791;28;20490;-52
2022/11/19 09:52:18;;;;;;;4.82;3.00;;;;;;;6.12;52.84;101852.88;4995747;28;19949;-52
2022/11/19 09:54:51;;;;;;;5.43;3.30;;;;;;;6.09;53.19;101846.84;5003299;28;20120;-49
2022/11/19 09:57:26;;;;;;;3.45;2.70;;;;;;;6.08;53.32;101850.50;5012957;28;20034;-52
2022/11/19 09:59:56;;;;;;;3.63;2.78;;;;;;;5.87;54.08;101849.09;5013584;28;20037;-51
2022/11/19 10:02:23;;;;;;;4.63;2.95;;;;;;;5.71;54.97;101847.09;5012761;28;20080;-51
2022/11/19 10:04:51;;;;;;;4.47;2.90;;;;;;;5.55;55.93;101843.28;5012091;28;20359;-53
2022/11/19 10:07:23;;;;;;;4.15;2.60;;;;;;;5.48;56.11;101847.50;5011760;28;20041;-52
2022/11/19 10:09:52;;;;;;;4.35;3.28;;;;;;;5.64;56.02;101846.84;5013818;28;20490;-52
2022/11/19 10:13:10;;;;;;;3.70;2.72;;;;;;;5.50;56.86;101837.59;5013354;28;20033;-52
2022/11/19 10:15:54;;;;;;;4.10;2.60;;;;;;;5.44;57.42;101840.84;5013046;28;20045;-52
2022/11/19 10:18:26;;;;;;;5.15;3.08;;;;;;;5.55;56.84;101851.25;5013677;28;20527;-51
2022/11/19 10:21:21;;;;;;;5.13;3.08;;;;;;;5.59;56.63;101850.94;5012733;28;20030;-52
2022/11/19 10:23:58;;;;;;;3.28;2.60;;;;;;;5.57;56.16;101857.25;5011468;28;20363;-51
2022/11/19 10:26:38;;;;;;;3.05;2.83;;;;;;;5.51;56.08;101852.53;5013543;28;20030;-49
2022/11/19 10:29:14;;;;;;;3.83;2.85;;;;;;;5.51;56.30;101851.69;5013585;28;20030;-51
2022/11/19 10:31:46;;;;;;;5.45;2.70;;;;;;;5.46;56.39;101852.13;5012386;28;20053;-50
2022/11/19 10:34:26;;;;;;;5.18;3.05;;;;;;;5.42;56.43;101842.78;5011041;28;20060;-52
2022/11/19 10:37:22;;;;;;;4.57;2.58;;;;;;;5.04;57.53;101854.41;4997844;28;20072;-52
2022/11/19 10:40:20;;;;;;;4.13;3.10;;;;;;;5.16;57.08;101852.41;5000401;28;20111;-52
2022/11/19 10:43:08;;;;;;;3.90;2.70;;;;;;;5.23;56.79;101842.91;5000641;28;20042;-51
2022/11/19 10:45:34;;;;;;;3.60;2.80;;;;;;;5.04;56.12;101847.28;5030777;28;20049;-52
2022/11/19 10:48:40;;;;;;;5.07;3.05;;;;;;;5.10;55.65;101843.19;5051784;28;20491;-52
2022/11/19 10:51:22;;;;;;;4.20;2.83;;;;;;;5.12;54.95;101841.25;5008095;28;20040;-51
2022/11/19 10:53:50;;;;;;;3.50;2.30;;;;;;;5.20;53.31;101840.53;5052410;28;20442;-52
2022/11/19 10:56:42;;;;;;;3.70;2.42;;;;;;;5.33;53.41;101843.69;5051701;28;20028;-52
2022/11/19 10:59:18;;;;;;;3.25;2.70;;;;;;;5.42;52.55;101840.13;5033039;28;20041;-51
2022/11/19 11:01:48;;;;;;;7.05;2.80;;;;;;;5.51;52.46;101844.56;5052005;28;20025;-52
2022/11/19 11:04:25;;;;;;;3.30;2.78;;;;;;;5.53;52.66;101857.69;5042525;28;20064;-52
2022/11/19 11:06:59;;;;;;;4.22;2.40;;;;;;;5.42;53.23;101853.41;5051906;28;20037;-51
2022/11/19 11:09:43;;;;;;;2.70;2.40;;;;;;;5.41;54.29;101851.75;5053151;28;20033;-51
2022/11/19 11:15:21;;;;;;;2.30;2.10;;;;;;;5.34;55.20;101860.44;5051147;28;20036;-52
2022/11/19 11:17:59;;;;;;;2.90;2.05;;;;;;;5.34;55.45;101860.44;5044455;28;20029;-52
2022/11/19 11:20:28;;;;;;;3.63;2.65;;;;;;;5.12;56.16;101857.19;5052629;22;20057;-51
2022/11/19 11:23:09;;;;;;;3.50;2.03;;;;;;;5.25;55.71;101868.28;5044851;28;20171;-52
2022/11/19 11:25:38;;;;;;;2.38;2.13;;;;;;;5.26;55.59;101869.13;5041054;28;20040;-52
2022/11/19 11:28:11;;;;;;;3.03;2.33;;;;;;;5.40;55.65;101865.16;5052737;28;20021;-51
2022/11/19 11:30:50;;;;;;;3.13;2.17;;;;;;;4.93;56.55;101873.97;5050544;28;20021;-51
2022/11/19 11:33:29;;;;;;;3.28;2.45;;;;;;;4.74;57.22;101863.44;5050823;28;20039;-52
2022/11/19 11:36:00;;;;;;;3.55;2.08;;;;;;;4.77;57.42;101852.53;5048037;28;20070;-52
2022/11/19 11:38:28;;;;;;;4.20;2.58;;;;;;;4.55;57.27;101858.97;5051035;28;20032;-52
2022/11/19 11:41:25;;;;;;;3.78;2.85;;;;;;;4.80;56.95;101864.69;5050453;28;20028;-55
2022/11/19 11:44:18;;;;;;;3.80;2.35;;;;;;;4.83;56.67;101869.69;5037001;28;20513;-52
2022/11/19 11:46:46;;;;;;;4.03;2.78;;;;;;;4.94;56.25;101877.47;5043542;28;20049;-52
2022/11/19 11:49:33;;;;;;;3.78;2.65;;;;;;;4.85;56.35;101876.53;5050291;28;20036;-52
2022/11/19 11:52:20;;;;;;;3.97;2.53;;;;;;;4.91;56.24;101881.25;5039932;28;20043;-49
2022/11/19 11:55:01;;;;;;;2.67;2.15;;;;;;;4.78;56.29;101880.75;5050414;28;20049;-51
2022/11/19 11:57:30;;;;;;;4.40;2.50;;;;;;;4.64;56.87;101878.53;5045566;28;20107;-52
2022/11/19 11:59:56;;;;;;;4.25;2.83;;;;;;;4.54;57.39;101878.53;5048989;28;20029;-51
2022/11/19 12:02:31;;;;;;;2.90;2.42;;;;;;;4.33;57.57;101875.19;5042413;28;20029;-51
2022/11/19 12:05:12;;;;;;;3.17;2.53;;;;;;;4.45;57.56;101887.34;5031323;28;20140;-51
2022/11/19 12:07:47;;;;;;;4.55;2.30;;;;;;;4.42;57.72;101887.59;5029451;28;20033;-53
2022/11/19 12:10:16;;;;;;;4.78;2.50;;;;;;;4.48;57.66;101893.19;5017897;28;20056;-53
2022/11/19 12:12:58;;;;;;;5.28;3.10;;;;;;;4.56;57.32;101896.97;5031950;28;20448;-52
2022/11/19 12:15:42;;;;;;;3.58;2.53;;;;;;;4.46;57.40;101899.63;5018976;28;20018;-52